createdAt,value
2023-01-12T00:01:54.167Z,5.20
2023-01-12T00:04:21.378Z,5.20
2023-01-12T00:06:48.885Z,5.20
2023-01-12T00:09:15.947Z,5.10
2023-01-12T00:11:43.979Z,5.10
2023-01-12T00:14:11.151Z,5.20
2023-01-12T00:16:38.603Z,5.20
2023-01-12T00:19:13.227Z,5.10
2023-01-12T00:21:56.550Z,5.10
2023-01-12T00:24:24.658Z,5.10
2023-01-12T00:26:53.334Z,5.00
2023-01-12T00:29:21.407Z,5.00
2023-01-12T00:31:48.770Z,5.00
2023-01-12T00:34:16.554Z,5.00
2023-01-12T00:36:45.475Z,4.90
2023-01-12T00:39:13.393Z,4.90
2023-01-12T00:41:59.964Z,5.20
2023-01-12T00:45:02.578Z,4.90
2023-01-12T00:47:29.839Z,4.80
2023-01-12T00:49:57.541Z,4.80
2023-01-12T00:52:30.823Z,4.80
2023-01-12T00:54:59.703Z,4.80
2023-01-12T00:57:28.525Z,4.80
2023-01-12T00:59:58.242Z,4.80
2023-01-12T01:02:28.946Z,4.70
2023-01-12T01:04:56.499Z,4.80
2023-01-12T01:07:24.545Z,4.70
2023-01-12T01:09:51.870Z,4.70
2023-01-12T01:12:19.624Z,4.70
2023-01-12T01:14:47.760Z,4.70
2023-01-12T01:17:15.407Z,4.70
2023-01-12T01:19:43.625Z,4.70
2023-01-12T01:22:12.992Z,4.60
2023-01-12T01:24:41.572Z,4.60
2023-01-12T01:27:09.376Z,4.60
2023-01-12T01:29:36.732Z,5.10
2023-01-12T01:32:04.385Z,4.60
2023-01-12T01:34:31.858Z,4.60
2023-01-12T01:36:59.413Z,4.60
2023-01-12T01:39:26.495Z,4.60
2023-01-12T01:41:53.866Z,4.60
2023-01-12T01:44:29.969Z,4.60
2023-01-12T01:47:11.113Z,4.60
2023-01-12T01:49:44.769Z,4.50
2023-01-12T01:52:34.974Z,4.50
2023-01-12T01:55:19.581Z,4.60
2023-01-12T01:57:53.759Z,4.50
2023-01-12T02:00:21.177Z,4.50
2023-01-12T02:02:48.952Z,4.60
2023-01-12T02:05:20.150Z,4.60
2023-01-12T02:07:49.739Z,4.60
2023-01-12T02:10:18.037Z,4.60
2023-01-12T02:13:04.701Z,4.60
2023-01-12T02:16:03.677Z,4.60
2023-01-12T02:18:43.562Z,4.60
2023-01-12T02:21:16.740Z,4.60
2023-01-12T02:24:06.003Z,4.60
2023-01-12T02:26:49.416Z,4.60
2023-01-12T02:29:55.033Z,4.60
2023-01-12T02:32:39.932Z,4.60
2023-01-12T02:35:40.524Z,4.60
2023-01-12T02:38:47.690Z,4.60
2023-01-12T02:41:45.146Z,4.60
2023-01-12T02:44:31.121Z,4.60
2023-01-12T02:47:00.628Z,4.70
2023-01-12T02:49:31.356Z,4.70
2023-01-12T02:52:03.863Z,4.60
2023-01-12T02:54:33.003Z,4.70
2023-01-12T02:57:07.359Z,4.70
2023-01-12T02:59:40.382Z,4.70
2023-01-12T03:02:18.493Z,4.70
2023-01-12T03:04:45.762Z,4.70
2023-01-12T03:07:29.079Z,4.70
2023-01-12T03:10:06.968Z,4.70
2023-01-12T03:12:37.077Z,4.70
2023-01-12T03:15:08.407Z,4.70
2023-01-12T03:17:49.763Z,4.70
2023-01-12T03:20:20.326Z,4.70
2023-01-12T03:22:51.502Z,4.70
2023-01-12T03:25:20.565Z,4.70
2023-01-12T03:27:54.575Z,4.70
2023-01-12T03:30:25.598Z,4.70
2023-01-12T03:32:53.020Z,4.70
2023-01-12T03:35:26.660Z,4.80
2023-01-12T03:38:04.877Z,4.80
2023-01-12T03:40:45.925Z,4.80
2023-01-12T03:43:17.906Z,4.80
2023-01-12T03:46:04.174Z,4.80
2023-01-12T03:48:38.073Z,4.80
2023-01-12T03:51:12.795Z,4.80
2023-01-12T03:53:43.092Z,4.80
2023-01-12T03:56:12.447Z,4.80
2023-01-12T03:58:40.681Z,5.40
2023-01-12T04:01:07.818Z,4.80
2023-01-12T04:03:35.472Z,4.80
2023-01-12T04:06:02.700Z,4.80
2023-01-12T04:08:30.203Z,4.80
2023-01-12T04:10:57.343Z,4.80
2023-01-12T04:13:24.703Z,4.80
2023-01-12T04:15:51.737Z,4.90
2023-01-12T04:18:19.045Z,4.90
2023-01-12T04:20:47.182Z,4.90
2023-01-12T04:23:14.445Z,4.90
2023-01-12T04:25:41.624Z,4.90
2023-01-12T04:28:08.931Z,4.90
2023-01-12T04:30:36.004Z,4.90
2023-01-12T04:33:08.231Z,4.90
2023-01-12T04:35:35.441Z,4.90
2023-01-12T04:38:07.889Z,5.00
2023-01-12T04:40:34.980Z,4.90
2023-01-12T04:43:06.305Z,4.90
2023-01-12T04:45:40.852Z,5.00
2023-01-12T04:48:11.434Z,5.00
2023-01-12T04:50:39.281Z,5.00
2023-01-12T04:53:09.869Z,5.10
2023-01-12T04:55:38.649Z,5.10
2023-01-12T04:58:06.327Z,5.10
2023-01-12T05:00:33.855Z,5.10
2023-01-12T05:03:02.523Z,5.10
2023-01-12T05:05:31.718Z,5.10
2023-01-12T05:08:19.891Z,5.10
2023-01-12T05:10:54.873Z,5.20
2023-01-12T05:13:23.166Z,5.20
2023-01-12T05:15:50.199Z,5.20
2023-01-12T05:18:17.526Z,5.20
2023-01-12T05:20:44.709Z,5.20
2023-01-12T05:23:12.157Z,5.30
2023-01-12T05:25:39.201Z,5.20
2023-01-12T05:28:06.844Z,5.20
2023-01-12T05:30:33.973Z,5.30
2023-01-12T05:33:01.302Z,6.40
2023-01-12T05:35:28.311Z,5.30
2023-01-12T05:37:56.681Z,5.30
2023-01-12T05:40:23.914Z,5.40
2023-01-12T05:43:10.476Z,5.30
2023-01-12T05:45:37.947Z,5.30
2023-01-12T05:48:05.873Z,5.30
2023-01-12T05:50:33.099Z,5.40
2023-01-12T05:53:10.320Z,6.50
2023-01-12T05:55:38.292Z,5.40
2023-01-12T05:58:05.835Z,6.40
2023-01-12T06:00:32.963Z,5.50
2023-01-12T06:03:02.567Z,5.40
2023-01-12T06:05:29.789Z,5.80
2023-01-12T06:07:57.789Z,5.50
2023-01-12T06:10:24.847Z,5.60
2023-01-12T06:13:18.667Z,5.60
2023-01-12T06:15:45.919Z,5.50
2023-01-12T06:18:13.264Z,5.60
2023-01-12T06:20:40.415Z,5.60
2023-01-12T06:23:07.694Z,5.60
2023-01-12T06:25:34.807Z,5.60
2023-01-12T06:28:02.185Z,5.70
2023-01-12T06:30:29.261Z,5.70
2023-01-12T06:33:00.827Z,5.70
2023-01-12T06:35:27.878Z,5.70
2023-01-12T06:37:58.058Z,5.80
2023-01-12T06:40:25.208Z,5.80
2023-01-12T06:42:52.767Z,5.80
2023-01-12T06:45:19.852Z,5.80
2023-01-12T06:47:52.200Z,5.30
2023-01-12T06:50:19.483Z,5.90
2023-01-12T06:52:46.927Z,5.90
2023-01-12T06:55:14.075Z,5.90
2023-01-12T06:57:41.699Z,6.00
2023-01-12T07:00:11.997Z,6.00
2023-01-12T07:02:39.725Z,6.00
2023-01-12T07:05:07.033Z,6.60
2023-01-12T07:07:34.544Z,6.00
2023-01-12T07:10:01.672Z,6.10
2023-01-12T07:12:29.122Z,6.00
2023-01-12T07:14:58.915Z,6.70
2023-01-12T07:17:26.199Z,6.10
2023-01-12T07:19:53.245Z,6.10
2023-01-12T07:22:20.517Z,6.20
2023-01-12T07:24:47.527Z,6.20
2023-01-12T07:27:15.043Z,6.50
2023-01-12T07:29:42.152Z,7.60
2023-01-12T07:32:09.485Z,6.20
2023-01-12T07:34:36.473Z,6.30
2023-01-12T07:37:03.826Z,7.30
2023-01-12T07:39:30.867Z,6.30
2023-01-12T07:42:16.963Z,6.60
2023-01-12T07:44:44.031Z,6.30
2023-01-12T07:47:11.359Z,6.40
2023-01-12T07:49:38.427Z,6.40
2023-01-12T07:52:05.925Z,6.40
2023-01-12T07:54:36.059Z,6.50
2023-01-12T07:57:03.982Z,6.50
2023-01-12T07:59:30.990Z,6.50
2023-01-12T08:01:58.379Z,6.60
2023-01-12T08:04:25.725Z,6.60
2023-01-12T08:06:53.326Z,6.60
2023-01-12T08:09:20.696Z,6.70
2023-01-12T08:11:48.079Z,6.70
2023-01-12T08:14:37.352Z,6.70
2023-01-12T08:17:09.914Z,6.70
2023-01-12T08:19:43.070Z,6.70
2023-01-12T08:22:16.550Z,7.00
2023-01-12T08:24:52.301Z,6.80
2023-01-12T08:27:23.263Z,6.90
2023-01-12T08:29:54.036Z,6.90
2023-01-12T08:32:21.567Z,6.90
2023-01-12T08:34:52.179Z,7.90
2023-01-12T08:37:23.074Z,6.90
2023-01-12T08:39:51.344Z,7.10
2023-01-12T08:42:20.307Z,7.00
2023-01-12T08:44:47.419Z,7.60
2023-01-12T08:47:27.118Z,7.00
2023-01-12T08:49:54.967Z,7.00
2023-01-12T08:52:25.218Z,7.10
2023-01-12T08:54:52.553Z,7.10
2023-01-12T08:57:19.955Z,7.50
2023-01-12T08:59:47.150Z,7.20
2023-01-12T09:02:16.062Z,7.20
2023-01-12T09:04:43.421Z,7.30
2023-01-12T09:07:11.722Z,7.20
2023-01-12T09:09:39.007Z,7.90
2023-01-12T09:12:08.802Z,7.30
2023-01-12T09:14:38.977Z,7.40
2023-01-12T09:17:07.553Z,7.40
2023-01-12T09:19:34.678Z,7.60
2023-01-12T09:22:02.102Z,8.70
2023-01-12T09:24:29.228Z,7.40
2023-01-12T09:26:56.649Z,7.50
2023-01-12T09:29:23.813Z,8.70
2023-01-12T09:31:51.251Z,7.50
2023-01-12T09:34:18.379Z,7.50
2023-01-12T09:36:46.097Z,7.50
2023-01-12T09:39:26.885Z,7.60
2023-01-12T09:42:15.225Z,7.90
2023-01-12T09:45:05.483Z,7.60
2023-01-12T09:47:49.382Z,7.60
2023-01-12T09:50:28.294Z,7.70
2023-01-12T09:53:18.567Z,7.70
2023-01-12T09:56:10.075Z,7.70
2023-01-12T09:59:03.993Z,7.70
2023-01-12T10:01:31.406Z,7.80
2023-01-12T10:04:01.282Z,8.90
2023-01-12T10:06:29.031Z,7.70
2023-01-12T10:09:00.562Z,7.70
2023-01-12T10:11:52.688Z,7.70
2023-01-12T10:14:34.400Z,7.80
2023-01-12T10:17:19.882Z,7.90
2023-01-12T10:20:12.348Z,7.90
2023-01-12T10:22:46.184Z,8.00
2023-01-12T10:25:23.408Z,8.00
2023-01-12T10:27:51.832Z,9.00
2023-01-12T10:30:32.272Z,8.00
2023-01-12T10:33:09.048Z,8.00
2023-01-12T10:35:36.671Z,8.00
2023-01-12T10:38:19.153Z,8.00
2023-01-12T10:41:17.924Z,7.90
2023-01-12T10:44:07.296Z,8.00
2023-01-12T10:46:35.976Z,8.00
2023-01-12T10:49:23.132Z,8.00
2023-01-12T10:51:56.018Z,8.10
2023-01-12T10:54:27.914Z,8.10
2023-01-12T10:57:01.618Z,8.40
2023-01-12T10:59:39.990Z,8.30
2023-01-12T11:02:11.853Z,8.30
2023-01-12T11:04:42.124Z,8.50
2023-01-12T11:07:29.070Z,9.40
2023-01-12T11:10:19.187Z,8.50
2023-01-12T11:13:00.136Z,8.60
2023-01-12T11:15:29.005Z,8.50
2023-01-12T11:18:05.166Z,8.50
2023-01-12T11:20:47.825Z,8.60
2023-01-12T11:23:25.972Z,8.70
2023-01-12T11:25:54.099Z,8.60
2023-01-12T11:28:21.392Z,8.70
2023-01-12T11:31:20.452Z,8.50
2023-01-12T11:34:02.779Z,8.50
2023-01-12T11:36:54.712Z,8.50
2023-01-12T11:39:24.430Z,8.60
2023-01-12T11:42:15.458Z,8.60
2023-01-12T11:44:45.841Z,8.60
2023-01-12T11:47:24.995Z,8.60
2023-01-12T11:50:18.170Z,8.50
2023-01-12T11:52:45.802Z,8.40
2023-01-12T11:55:20.976Z,8.50
2023-01-12T11:57:47.938Z,8.70
2023-01-12T12:00:41.387Z,8.40
2023-01-12T12:03:36.282Z,8.50
2023-01-12T12:06:27.518Z,8.70
2023-01-12T12:09:27.612Z,8.70
2023-01-12T12:12:02.329Z,8.80
2023-01-12T12:15:11.765Z,8.90
2023-01-12T12:17:50.448Z,8.90
2023-01-12T12:20:23.687Z,8.90
2023-01-12T12:23:10.678Z,8.90
2023-01-12T12:25:44.830Z,9.10
2023-01-12T12:28:36.999Z,9.00
2023-01-12T12:31:21.061Z,9.10
2023-01-12T12:33:54.597Z,9.10
2023-01-12T12:36:30.064Z,9.30
2023-01-12T12:39:34.480Z,9.50
2023-01-12T12:42:35.210Z,9.50
2023-01-12T12:45:26.332Z,9.50
2023-01-12T12:47:59.335Z,9.60
2023-01-12T12:50:45.236Z,9.40
2023-01-12T12:53:24.960Z,9.40
2023-01-12T12:55:54.309Z,9.30
2023-01-12T12:58:21.397Z,9.30
2023-01-12T13:00:50.753Z,9.50
2023-01-12T13:03:39.833Z,9.30
2023-01-12T13:06:30.194Z,9.20
2023-01-12T13:09:04.638Z,9.20
2023-01-12T13:11:53.707Z,9.20
2023-01-12T13:14:34.777Z,9.20
2023-01-12T13:17:06.212Z,9.20
2023-01-12T13:19:43.250Z,9.20
2023-01-12T13:22:33.699Z,9.20
2023-01-12T13:25:24.305Z,9.70
2023-01-12T13:27:52.423Z,9.20
2023-01-12T13:30:28.635Z,9.80
2023-01-12T13:33:17.145Z,9.40
2023-01-12T13:35:45.114Z,9.50
2023-01-12T13:38:21.498Z,9.30
2023-01-12T13:40:55.846Z,9.30
2023-01-12T13:43:32.499Z,9.20
2023-01-12T13:46:06.250Z,9.20
2023-01-12T13:48:35.886Z,9.10
2023-01-12T13:51:12.775Z,9.10
2023-01-12T13:53:40.394Z,9.10
2023-01-12T13:56:18.626Z,9.00
2023-01-12T13:58:46.694Z,9.00
2023-01-12T14:01:17.792Z,9.00
2023-01-12T14:04:01.410Z,9.00
2023-01-12T14:06:48.261Z,9.00
2023-01-12T14:09:34.692Z,9.10
2023-01-12T14:12:27.971Z,8.90
2023-01-12T14:15:32.879Z,8.90
2023-01-12T14:18:09.539Z,8.80
2023-01-12T14:20:51.656Z,8.70
2023-01-12T14:23:27.596Z,8.60
2023-01-12T14:26:07.047Z,9.20
2023-01-12T14:28:35.264Z,8.50
2023-01-12T14:31:04.620Z,8.50
2023-01-12T14:33:37.684Z,8.60
2023-01-12T14:36:12.137Z,8.40
2023-01-12T14:38:44.166Z,8.30
2023-01-12T14:41:36.833Z,8.30
2023-01-12T14:44:23.152Z,8.20
2023-01-12T14:46:53.531Z,8.20
2023-01-12T14:49:20.904Z,8.40
2023-01-12T14:52:00.228Z,8.10
2023-01-12T14:54:29.934Z,8.10
2023-01-12T14:57:18.082Z,8.10
2023-01-12T14:59:48.277Z,8.00
2023-01-12T15:02:18.372Z,8.00
2023-01-12T15:04:57.629Z,7.90
2023-01-12T15:07:29.163Z,7.90
2023-01-12T15:10:01.352Z,7.80
2023-01-12T15:12:28.673Z,9.00
2023-01-12T15:15:52.299Z,7.80
2023-01-12T15:18:38.788Z,7.80
2023-01-12T15:21:24.792Z,7.70
2023-01-12T15:24:11.053Z,8.60
2023-01-12T15:26:38.197Z,7.70
2023-01-12T15:29:05.503Z,7.60
2023-01-12T15:31:37.530Z,7.60
2023-01-12T15:34:06.392Z,7.60
2023-01-12T15:36:33.494Z,7.60
2023-01-12T15:39:00.843Z,7.50
2023-01-12T15:41:49.260Z,7.50
2023-01-12T15:44:21.867Z,7.40
2023-01-12T15:46:49.026Z,7.40
2023-01-12T15:49:17.037Z,7.40
2023-01-12T15:51:47.292Z,7.40
2023-01-12T15:54:18.512Z,7.30
2023-01-12T15:56:45.969Z,7.30
2023-01-12T15:59:13.504Z,7.50
2023-01-12T16:01:45.581Z,8.50
2023-01-12T16:04:41.416Z,7.20
2023-01-12T16:07:04.045Z,7.20
2023-01-12T16:09:31.354Z,7.10
2023-01-12T16:11:58.459Z,7.10
2023-01-12T16:14:26.200Z,7.10
2023-01-12T16:16:55.674Z,7.10
2023-01-12T16:19:23.874Z,7.10
2023-01-12T16:21:54.003Z,7.00
2023-01-12T16:24:21.628Z,7.00
2023-01-12T16:26:48.747Z,7.80
2023-01-12T16:29:16.542Z,7.10
2023-01-12T16:31:44.291Z,7.00
2023-01-12T16:34:11.827Z,8.70
2023-01-12T16:36:38.872Z,7.00
2023-01-12T16:39:06.205Z,6.90
2023-01-12T16:41:33.370Z,7.90
2023-01-12T16:44:00.709Z,6.90
2023-01-12T16:46:27.800Z,7.00
2023-01-12T16:48:56.326Z,6.90
2023-01-12T16:51:24.574Z,6.90
2023-01-12T16:53:55.193Z,6.90
2023-01-12T16:56:22.276Z,6.90
2023-01-12T16:58:49.598Z,6.90
2023-01-12T17:01:21.771Z,6.90
2023-01-12T17:03:50.991Z,6.80
2023-01-12T17:06:20.966Z,6.80
2023-01-12T17:08:48.653Z,6.80
2023-01-12T17:11:21.051Z,7.90
2023-01-12T17:13:57.142Z,6.70
2023-01-12T17:16:26.388Z,7.30
2023-01-12T17:18:54.445Z,6.70
2023-01-12T17:21:22.235Z,6.60
2023-01-12T17:23:49.995Z,6.60
2023-01-12T17:26:18.448Z,6.60
2023-01-12T17:28:46.934Z,6.60
2023-01-12T17:31:17.055Z,6.60
2023-01-12T17:33:44.744Z,6.60
2023-01-12T17:36:13.280Z,6.50
2023-01-12T17:38:40.978Z,6.50
2023-01-12T17:41:34.290Z,6.50
2023-01-12T17:44:04.123Z,6.50
2023-01-12T17:46:32.240Z,7.30
2023-01-12T17:49:02.192Z,6.50
2023-01-12T17:51:29.608Z,6.50
2023-01-12T17:53:58.668Z,6.50
2023-01-12T17:56:27.301Z,6.40
2023-01-12T17:58:55.600Z,6.40
2023-01-12T18:01:24.794Z,6.40
2023-01-12T18:03:52.487Z,6.40
2023-01-12T18:06:26.482Z,6.30
2023-01-12T18:08:56.567Z,6.40
2023-01-12T18:11:24.219Z,6.30
2023-01-12T18:13:51.634Z,6.30
2023-01-12T18:16:18.954Z,7.20
2023-01-12T18:18:46.397Z,6.20
2023-01-12T18:21:20.985Z,6.20
2023-01-12T18:23:50.494Z,6.20
2023-01-12T18:26:27.879Z,6.20
2023-01-12T18:28:57.188Z,6.10
2023-01-12T18:31:27.018Z,6.20
2023-01-12T18:34:05.117Z,6.20
2023-01-12T18:36:34.552Z,6.00
2023-01-12T18:39:02.266Z,6.10
2023-01-12T18:41:47.851Z,6.00
2023-01-12T18:44:15.211Z,6.00
2023-01-12T18:47:02.639Z,6.00
2023-01-12T18:49:33.383Z,6.00
2023-01-12T18:52:19.967Z,6.00
2023-01-12T18:54:48.123Z,6.00
2023-01-12T18:57:18.831Z,5.90
2023-01-12T18:59:51.539Z,5.90
2023-01-12T19:02:19.631Z,5.90
2023-01-12T19:04:50.308Z,5.90
2023-01-12T19:07:27.836Z,5.90
2023-01-12T19:09:56.324Z,5.90
2023-01-12T19:12:29.643Z,5.90
2023-01-12T19:15:15.687Z,5.90
2023-01-12T19:17:42.731Z,5.90
2023-01-12T19:20:15.919Z,6.80
2023-01-12T19:23:01.959Z,5.90
2023-01-12T19:25:48.483Z,5.90
2023-01-12T19:28:35.233Z,5.90
2023-01-12T19:31:15.064Z,5.90
2023-01-12T19:33:42.800Z,5.80
2023-01-12T19:36:14.163Z,5.80
2023-01-12T19:38:44.017Z,5.80
2023-01-12T19:41:14.155Z,5.80
2023-01-12T19:43:45.366Z,6.80
2023-01-12T19:46:13.269Z,5.80
2023-01-12T19:48:40.442Z,5.80
2023-01-12T19:51:11.002Z,6.10
2023-01-12T19:53:40.136Z,5.80
2023-01-12T19:56:11.872Z,5.80
2023-01-12T19:58:39.411Z,5.80
2023-01-12T20:01:07.505Z,6.50
2023-01-12T20:03:35.881Z,5.80
2023-01-12T20:06:07.654Z,5.80
2023-01-12T20:08:35.184Z,5.80
2023-01-12T20:11:05.089Z,5.80
2023-01-12T20:13:34.425Z,5.80
2023-01-12T20:16:09.959Z,5.70
2023-01-12T20:18:37.447Z,5.70
2023-01-12T20:21:11.767Z,5.70
2023-01-12T20:23:39.137Z,5.70
2023-01-12T20:26:08.162Z,5.70
2023-01-12T20:28:35.828Z,5.80
2023-01-12T20:31:13.074Z,5.80
2023-01-12T20:33:40.664Z,5.80
2023-01-12T20:36:13.110Z,6.00
2023-01-12T20:38:41.111Z,5.90
2023-01-12T20:41:10.128Z,5.90
2023-01-12T20:43:38.772Z,6.00
2023-01-12T20:46:10.621Z,6.00
2023-01-12T20:48:44.938Z,6.10
2023-01-12T20:51:15.453Z,6.10
2023-01-12T20:53:43.324Z,6.10
2023-01-12T20:56:10.825Z,6.30
2023-01-12T20:58:38.184Z,6.20
2023-01-12T21:01:15.352Z,6.50
2023-01-12T21:03:44.082Z,6.30
2023-01-12T21:06:17.842Z,6.30
2023-01-12T21:08:46.793Z,6.30
2023-01-12T21:11:16.784Z,6.40
2023-01-12T21:13:44.531Z,6.40
2023-01-12T21:16:14.972Z,6.40
2023-01-12T21:18:42.943Z,7.20
2023-01-12T21:21:10.981Z,6.70
2023-01-12T21:23:38.357Z,6.50
2023-01-12T21:26:08.930Z,6.50
2023-01-12T21:28:40.329Z,6.60
2023-01-12T21:31:10.639Z,6.60
2023-01-12T21:33:38.444Z,6.60
2023-01-12T21:36:05.906Z,6.60
2023-01-12T21:38:36.021Z,6.60
2023-01-12T21:41:05.555Z,6.60
2023-01-12T21:43:33.692Z,6.60
2023-01-12T21:46:10.138Z,6.60
2023-01-12T21:48:37.658Z,6.60
2023-01-12T21:51:07.450Z,6.70
2023-01-12T21:53:35.477Z,6.70
2023-01-12T21:56:04.853Z,6.70
2023-01-12T21:58:34.960Z,6.70
2023-01-12T22:01:08.764Z,6.70
2023-01-12T22:03:36.217Z,6.70
2023-01-12T22:06:12.349Z,6.70
2023-01-12T22:08:41.168Z,6.80
2023-01-12T22:11:10.898Z,7.60
2023-01-12T22:13:39.780Z,6.80
2023-01-12T22:16:09.682Z,6.90
2023-01-12T22:18:37.556Z,6.90
2023-01-12T22:21:07.725Z,6.90
2023-01-12T22:23:38.709Z,6.90
2023-01-12T22:26:11.559Z,6.90
2023-01-12T22:28:41.390Z,6.90
2023-01-12T22:31:13.996Z,7.20
2023-01-12T22:34:00.758Z,6.90
2023-01-12T22:36:28.258Z,6.90
2023-01-12T22:38:55.630Z,6.90
2023-01-12T22:41:24.745Z,7.00
2023-01-12T22:43:52.861Z,6.90
2023-01-12T22:46:27.533Z,7.40
2023-01-12T22:48:57.561Z,7.00
2023-01-12T22:51:26.351Z,7.00
2023-01-12T22:53:55.555Z,7.30
2023-01-12T22:56:23.273Z,7.00
2023-01-12T22:58:52.581Z,7.00
2023-01-12T23:01:21.119Z,7.00
2023-01-12T23:03:52.177Z,7.00
2023-01-12T23:06:19.511Z,7.10
2023-01-12T23:08:47.019Z,7.60
2023-01-12T23:11:22.973Z,7.10
2023-01-12T23:13:51.143Z,7.10
2023-01-12T23:16:19.270Z,7.10
2023-01-12T23:18:47.620Z,7.10
2023-01-12T23:21:17.631Z,7.10
2023-01-12T23:23:50.375Z,7.10
2023-01-12T23:26:20.668Z,7.20
2023-01-12T23:28:50.990Z,7.10
2023-01-12T23:31:21.441Z,7.10
2023-01-12T23:33:49.088Z,7.20
2023-01-12T23:36:19.390Z,7.20
2023-01-12T23:38:46.865Z,7.20
2023-01-12T23:41:19.529Z,7.20
2023-01-12T23:43:49.110Z,7.20
2023-01-12T23:46:23.485Z,7.10
2023-01-12T23:48:52.553Z,7.20
2023-01-12T23:51:20.149Z,7.40
2023-01-12T23:53:48.870Z,7.10
2023-01-12T23:56:16.826Z,7.20
2023-01-12T23:58:44.871Z,7.10
